Time;durP1;ratioP1;P1;durP2;ratioP2;P2;SDS_P1;SDS_P2;PMS_P1;PMS_P2;Temp;Humidity;BMP_temperature;BMP_pressure;BME280_temperature;BME280_humidity;BME280_pressure;Samples;Min_cycle;Max_cycle;Signal;HPM_P1;HPM_P2
2023/06/08 00:00:41;;;;;;;11.55;7.68;;;;;;;17.48;100.00;97586.16;5121998;28;20061;-78
2023/06/08 00:03:07;;;;;;;10.70;6.75;;;;;;;17.44;100.00;97592.88;5130573;28;20053;-78
2023/06/08 00:05:43;;;;;;;16.10;7.50;;;;;;;17.38;100.00;97594.25;5117795;28;20024;-78
2023/06/08 00:08:09;;;;;;;15.45;8.05;;;;;;;17.24;100.00;97591.91;5111701;28;20114;-78
2023/06/08 00:10:34;;;;;;;10.27;7.32;;;;;;;17.22;100.00;97599.31;5110387;27;20036;-78
2023/06/08 00:13:00;;;;;;;11.07;7.35;;;;;;;17.20;100.00;97602.13;5093510;28;20479;-78
2023/06/08 00:15:27;;;;;;;10.15;7.18;;;;;;;17.21;100.00;97611.09;5116644;27;20046;-78
2023/06/08 00:17:52;;;;;;;10.75;7.55;;;;;;;17.20;100.00;97607.53;5117097;27;20047;-77
2023/06/08 00:20:18;;;;;;;11.38;7.40;;;;;;;17.19;100.00;97616.66;5116919;27;20054;-78
2023/06/08 00:22:47;;;;;;;12.05;7.70;;;;;;;17.12;100.00;97614.63;5106202;27;20019;-78
2023/06/08 00:25:13;;;;;;;13.52;7.40;;;;;;;17.11;100.00;97611.06;5114468;27;20493;-78
2023/06/08 00:27:39;;;;;;;11.25;7.82;;;;;;;17.09;100.00;97618.44;5134035;27;20050;-78
2023/06/08 00:30:05;;;;;;;22.42;8.20;;;;;;;16.99;100.00;97613.97;5134152;27;20110;-78
2023/06/08 00:32:31;;;;;;;14.07;7.82;;;;;;;17.09;100.00;97623.00;5105039;28;20026;-79
2023/06/08 00:34:56;;;;;;;14.57;7.55;;;;;;;17.13;100.00;97619.03;5128712;27;20398;-78
2023/06/08 00:37:22;;;;;;;13.65;7.13;;;;;;;17.17;100.00;97620.47;5109450;28;20472;-78
2023/06/08 00:39:47;;;;;;;10.93;7.05;;;;;;;17.12;100.00;97614.63;5127402;27;20028;-78
2023/06/08 00:42:13;;;;;;;12.18;7.55;;;;;;;17.11;100.00;97611.06;5130408;27;20027;-78
2023/06/08 00:44:38;;;;;;;11.93;7.60;;;;;;;17.15;100.00;97606.22;5098706;28;20080;-78
2023/06/08 00:47:04;;;;;;;9.63;6.95;;;;;;;17.14;100.00;97597.25;5129080;27;20038;-78
2023/06/08 00:49:31;;;;;;;13.02;6.82;;;;;;;17.08;100.00;97592.41;5116263;27;20027;-78
2023/06/08 00:51:57;;;;;;;10.07;6.70;;;;;;;17.02;100.00;97592.06;5101786;28;20039;-78
2023/06/08 00:54:25;;;;;;;16.70;6.65;;;;;;;16.96;100.00;97598.00;5113863;27;20491;-78
2023/06/08 00:56:52;;;;;;;11.25;7.20;;;;;;;16.96;100.00;97592.59;5133659;27;20022;-78
2023/06/08 00:59:18;;;;;;;10.18;7.20;;;;;;;17.00;100.00;97599.47;5133435;27;20023;-78
2023/06/08 01:01:44;;;;;;;10.48;7.53;;;;;;;16.98;100.00;97596.06;5116366;27;20026;-78
2023/06/08 01:04:11;;;;;;;11.18;6.65;;;;;;;16.84;100.00;97593.66;5134660;27;20106;-78
2023/06/08 01:06:38;;;;;;;11.77;6.55;;;;;;;16.81;100.00;97600.19;5115973;27;20035;-77
2023/06/08 01:09:20;;;;;;;12.70;7.70;;;;;;;16.80;100.00;97604.75;5112372;28;20116;-79
2023/06/08 01:12:10;;;;;;;10.00;7.20;;;;;;;16.72;100.00;97606.41;5099429;27;20058;-79
2023/06/08 01:15:00;;;;;;;21.73;7.50;;;;;;;16.65;100.00;97603.34;5105060;28;20118;-77
2023/06/08 01:17:35;;;;;;;18.33;7.50;;;;;;;16.60;100.00;97596.66;5130266;27;20035;-78
2023/06/08 01:20:16;;;;;;;13.40;7.72;;;;;;;16.61;100.00;97604.59;5122756;27;20031;-77
2023/06/08 01:23:13;;;;;;;10.30;7.55;;;;;;;16.54;100.00;97598.03;5113911;28;20081;-78
2023/06/08 01:25:39;;;;;;;13.25;7.32;;;;;;;16.49;100.00;97611.00;5130440;27;20027;-78
2023/06/08 01:28:12;;;;;;;14.73;7.85;;;;;;;16.40;100.00;97603.69;5115651;27;20023;-78
2023/06/08 01:30:45;;;;;;;10.55;7.45;;;;;;;16.39;100.00;97604.69;5132928;27;20015;-78
2023/06/08 01:33:18;;;;;;;11.20;7.80;;;;;;;16.33;100.00;97601.66;5132969;27;20070;-78
2023/06/08 01:35:54;;;;;;;11.02;7.28;;;;;;;16.38;100.00;97612.91;5133865;27;20037;-78
2023/06/08 01:38:49;;;;;;;11.18;7.28;;;;;;;16.30;100.00;97602.78;5132794;27;20054;-78
2023/06/08 01:41:22;;;;;;;17.45;7.40;;;;;;;16.26;100.00;97615.66;5132597;27;20023;-78
2023/06/08 01:43:50;;;;;;;15.75;8.02;;;;;;;16.18;100.00;97612.72;5094915;28;20487;-78
2023/06/08 01:46:15;;;;;;;10.73;8.05;;;;;;;16.11;100.00;97610.69;5102066;27;20106;-78
2023/06/08 01:48:43;;;;;;;16.20;8.20;;;;;;;16.09;100.00;97607.25;5104555;28;20019;-78
2023/06/08 01:51:11;;;;;;;16.33;8.18;;;;;;;16.01;100.00;97604.34;5108906;28;20501;-78
2023/06/08 01:53:38;;;;;;;13.98;8.07;;;;;;;15.98;100.00;97604.59;5112907;27;20478;-78
2023/06/08 01:56:04;;;;;;;10.32;7.78;;;;;;;15.97;100.00;97606.41;5114171;27;20074;-78
2023/06/08 01:58:30;;;;;;;14.30;8.32;;;;;;;15.92;100.00;97605.97;5108954;28;20054;-78
2023/06/08 02:00:58;;;;;;;15.18;8.55;;;;;;;15.90;100.00;97607.94;5112276;27;20058;-78
2023/06/08 02:03:24;;;;;;;15.65;9.15;;;;;;;15.91;100.00;97608.75;5114999;27;20019;-77
2023/06/08 02:05:49;;;;;;;17.27;8.52;;;;;;;15.99;100.00;97612.56;5114589;27;20045;-78
2023/06/08 02:08:15;;;;;;;16.13;8.68;;;;;;;15.92;100.00;97615.88;5111356;28;20023;-78
2023/06/08 02:10:41;;;;;;;14.82;8.52;;;;;;;15.88;100.00;97619.81;5111655;28;20049;-77
2023/06/08 02:13:07;;;;;;;18.58;9.70;;;;;;;15.87;100.00;97610.88;5102601;28;20035;-78
2023/06/08 02:15:32;;;;;;;18.48;8.40;;;;;;;15.92;100.00;97610.50;5094501;28;20034;-78
2023/06/08 02:17:58;;;;;;;15.70;7.90;;;;;;;16.00;100.00;97618.78;5111213;28;20430;-78
2023/06/08 02:20:24;;;;;;;19.05;8.68;;;;;;;16.02;100.00;97616.84;5120211;27;20024;-78
2023/06/08 02:22:49;;;;;;;17.88;8.88;;;;;;;16.02;100.00;97616.84;5110840;27;20470;-78
2023/06/08 02:25:15;;;;;;;14.32;8.35;;;;;;;15.93;100.00;97607.69;5114453;27;20023;-78
2023/06/08 02:27:43;;;;;;;14.88;8.90;;;;;;;15.93;100.00;97612.22;5131822;27;20019;-78
2023/06/08 02:30:10;;;;;;;16.48;8.30;;;;;;;15.90;100.00;97607.06;5114837;27;20123;-78
2023/06/08 02:32:41;;;;;;;17.35;8.68;;;;;;;15.87;100.00;97610.03;5100383;28;20016;-79
2023/06/08 02:35:07;;;;;;;22.60;8.10;;;;;;;15.81;100.00;97603.25;5094235;28;20027;-78
2023/06/08 02:37:33;;;;;;;15.77;8.10;;;;;;;15.83;100.00;97612.09;5110919;28;20027;-77
2023/06/08 02:40:00;;;;;;;21.33;8.48;;;;;;;15.80;100.00;97608.81;5102801;27;20112;-78
2023/06/08 02:42:26;;;;;;;16.23;8.00;;;;;;;15.79;100.00;97607.06;5131481;27;20023;-77
2023/06/08 02:44:52;;;;;;;11.57;8.25;;;;;;;15.77;100.00;97600.97;5106455;28;20019;-78
2023/06/08 02:47:17;;;;;;;15.73;8.32;;;;;;;15.77;100.00;97604.53;5093604;28;20034;-77
2023/06/08 02:49:43;;;;;;;13.65;8.23;;;;;;;15.77;100.00;97600.97;5108403;27;20418;-78
2023/06/08 02:52:09;;;;;;;21.95;8.73;;;;;;;15.78;100.00;97613.47;5131065;27;20027;-78
2023/06/08 02:54:34;;;;;;;20.83;8.48;;;;;;;15.84;100.00;97607.56;5114092;27;20023;-78
2023/06/08 02:57:00;;;;;;;13.82;8.85;;;;;;;15.76;100.00;97599.25;5114018;27;20034;-77
2023/06/08 02:59:29;;;;;;;15.70;8.40;;;;;;;15.80;100.00;97606.09;5093410;28;20058;-78
2023/06/08 03:01:56;;;;;;;14.20;8.32;;;;;;;15.84;100.00;97613.84;5094043;28;20023;-78
2023/06/08 03:04:22;;;;;;;14.68;8.85;;;;;;;15.89;100.00;97617.00;5093202;28;20034;-77
2023/06/08 03:06:53;;;;;;;12.15;8.10;;;;;;;15.87;100.00;97618.13;5108446;27;20175;-78
2023/06/08 03:09:20;;;;;;;16.73;9.68;;;;;;;15.84;100.00;97613.84;5113894;27;20034;-78
2023/06/08 03:11:47;;;;;;;17.60;9.88;;;;;;;16.02;100.00;97630.34;5099520;28;20015;-78
2023/06/08 03:14:12;;;;;;;17.60;9.13;;;;;;;16.01;100.00;97613.28;5092979;28;20032;-78
2023/06/08 03:16:38;;;;;;;20.38;8.95;;;;;;;16.12;100.00;97623.19;5101999;28;20023;-78
2023/06/08 03:19:03;;;;;;;16.48;8.60;;;;;;;16.17;100.00;97616.44;5093433;28;20051;-78
2023/06/08 03:21:29;;;;;;;16.38;8.00;;;;;;;16.16;100.00;97603.91;5101614;28;20031;-78
2023/06/08 03:23:55;;;;;;;17.48;9.30;;;;;;;16.27;100.00;97600.34;5125829;27;20023;-79
2023/06/08 03:26:21;;;;;;;15.40;8.90;;;;;;;16.28;100.00;97581.28;5120107;27;20036;-78
2023/06/08 03:28:47;;;;;;;23.02;9.38;;;;;;;16.40;100.00;97575.81;5093296;28;20055;-78
2023/06/08 03:31:12;;;;;;;25.52;7.72;;;;;;;16.40;100.00;97571.28;5092917;28;20112;-76
2023/06/08 03:33:38;;;;;;;15.90;7.35;;;;;;;16.48;100.00;97568.81;5105935;28;20084;-75
2023/06/08 03:36:04;;;;;;;21.83;7.57;;;;;;;16.53;100.00;97561.16;5105567;28;20036;-76
2023/06/08 03:38:30;;;;;;;14.10;6.95;;;;;;;16.58;100.00;97561.66;5092852;28;20023;-76
2023/06/08 03:40:55;;;;;;;15.90;7.18;;;;;;;16.68;100.00;97542.81;5125049;27;20077;-76
2023/06/08 03:43:21;;;;;;;9.48;6.30;;;;;;;16.79;100.00;97543.63;5113362;28;20026;-77
2023/06/08 03:45:46;;;;;;;15.50;6.90;;;;;;;16.70;100.00;97536.28;5125450;27;20028;-76
2023/06/08 03:48:12;;;;;;;8.43;6.05;;;;;;;16.72;100.00;97526.22;5093765;28;20042;-77
2023/06/08 03:50:37;;;;;;;12.95;6.88;;;;;;;16.82;100.00;97514.59;5097167;28;20035;-76
2023/06/08 03:53:03;;;;;;;14.48;5.85;;;;;;;16.88;100.00;97508.66;5112633;27;20061;-76
2023/06/08 03:55:29;;;;;;;10.20;5.70;;;;;;;16.84;100.00;97501.81;5117266;27;20035;-75
2023/06/08 03:57:54;;;;;;;10.18;6.30;;;;;;;16.94;100.00;97506.28;5117423;27;20023;-76
2023/06/08 04:00:20;;;;;;;11.15;6.60;;;;;;;17.02;100.00;97509.16;5134534;27;20042;-76
2023/06/08 04:02:46;;;;;;;14.90;6.18;;;;;;;17.06;100.00;97496.22;5135903;27;20116;-76
2023/06/08 04:05:13;;;;;;;13.55;6.85;;;;;;;17.08;100.00;97499.63;5117544;27;20031;-76
2023/06/08 04:07:40;;;;;;;14.95;7.60;;;;;;;17.19;100.00;97499.56;5117214;27;20031;-76
2023/06/08 04:10:06;;;;;;;19.45;9.30;;;;;;;17.37;100.00;97500.59;5135655;27;20539;-76
2023/06/08 04:12:32;;;;;;;18.35;9.15;;;;;;;17.49;100.00;97488.69;5098080;28;20032;-77
2023/06/08 04:14:58;;;;;;;18.77;7.95;;;;;;;17.62;100.00;97492.03;5116315;27;20501;-75
2023/06/08 04:17:24;;;;;;;15.15;6.28;;;;;;;17.85;100.00;97485.34;5134135;27;20047;-76
2023/06/08 04:19:49;;;;;;;16.33;5.70;;;;;;;18.00;100.00;97477.63;5117156;27;20038;-75
2023/06/08 04:22:15;;;;;;;10.80;6.63;;;;;;;18.14;100.00;97481.78;5116931;27;20027;-77
2023/06/08 04:24:42;;;;;;;14.55;5.60;;;;;;;18.16;100.00;97479.78;5134832;27;20031;-76
2023/06/08 04:27:07;;;;;;;12.07;5.78;;;;;;;18.18;100.00;97472.38;5111683;27;20038;-73
2023/06/08 04:29:33;;;;;;;13.55;6.07;;;;;;;18.06;100.00;97476.22;5133916;27;20027;-76
2023/06/08 04:31:58;;;;;;;19.33;10.95;;;;;;;17.99;100.00;97480.50;5116369;27;20096;-77
2023/06/08 04:34:24;;;;;;;17.27;7.68;;;;;;;18.05;100.00;97477.22;5116465;27;20035;-76
2023/06/08 04:36:50;;;;;;;24.75;7.03;;;;;;;18.14;100.00;97477.22;5103889;28;20027;-77
2023/06/08 04:39:16;;;;;;;15.40;6.68;;;;;;;18.19;100.00;97471.38;5111973;27;20023;-77
2023/06/08 04:41:45;;;;;;;22.60;11.05;;;;;;;18.19;100.00;97471.38;5133815;27;20463;-76
2023/06/08 04:44:13;;;;;;;21.25;9.48;;;;;;;18.17;100.00;97465.25;5117016;27;20475;-75
2023/06/08 04:46:39;;;;;;;13.82;6.25;;;;;;;18.31;100.00;97476.50;5133420;27;20019;-76
2023/06/08 04:49:05;;;;;;;13.80;6.50;;;;;;;18.35;100.00;97477.06;5116111;27;20460;-75
2023/06/08 04:51:30;;;;;;;12.77;6.15;;;;;;;18.61;100.00;97478.16;5133478;27;20015;-76
2023/06/08 04:53:57;;;;;;;15.43;7.07;;;;;;;18.82;100.00;97470.72;5133039;27;20443;-75
2023/06/08 04:56:23;;;;;;;11.18;6.95;;;;;;;19.22;100.00;97469.53;5116037;27;20023;-75
2023/06/08 04:58:50;;;;;;;21.98;6.63;;;;;;;20.22;100.00;97470.28;5106911;28;20019;-76
2023/06/08 05:01:16;;;;;;;17.35;7.47;;;;;;;21.36;100.00;97449.16;5124364;27;20076;-75
2023/06/08 05:03:43;;;;;;;29.00;7.82;;;;;;;22.09;100.00;97431.13;5112651;28;20011;-75
2023/06/08 05:06:08;;;;;;;21.45;8.65;;;;;;;22.29;100.00;97436.25;5132542;27;20461;-75
2023/06/08 05:08:34;;;;;;;9.77;5.78;;;;;;;23.28;100.00;97445.81;5115734;27;20180;-75
2023/06/08 05:11:00;;;;;;;10.85;5.22;;;;;;;23.86;100.00;97441.78;5132804;27;20084;-75
2023/06/08 05:13:25;;;;;;;26.33;8.20;;;;;;;24.24;100.00;97433.50;5127908;27;20036;-76
2023/06/08 05:15:58;;;;;;;13.70;5.32;;;;;;;24.32;100.00;97431.72;5098516;27;20019;-80
2023/06/08 05:18:24;;;;;;;13.90;5.10;;;;;;;24.66;100.00;97432.13;5116681;27;20414;-80
2023/06/08 05:20:49;;;;;;;23.70;5.85;;;;;;;25.07;100.00;97425.19;5107587;28;20019;-77
2023/06/08 05:23:15;;;;;;;12.63;5.75;;;;;;;24.65;100.00;97430.41;5132754;27;20474;-78
2023/06/08 05:25:40;;;;;;;11.48;4.82;;;;;;;23.60;100.00;97440.22;5115739;27;20087;-77
2023/06/08 05:28:06;;;;;;;14.70;6.93;;;;;;;22.93;100.00;97441.66;5132470;27;20031;-75
2023/06/08 05:30:31;;;;;;;63.17;38.33;;;;;;;22.36;100.00;97442.72;5115524;27;20024;-75
2023/06/08 05:32:57;;;;;;;14.50;6.53;;;;;;;22.03;100.00;97450.88;5114724;27;20035;-75
2023/06/08 05:35:22;;;;;;;21.23;10.55;;;;;;;21.94;100.00;97464.66;5095072;28;20034;-76
2023/06/08 05:37:48;;;;;;;13.45;8.02;;;;;;;21.52;100.00;97467.41;5130628;27;20027;-76
2023/06/08 05:40:14;;;;;;;23.63;7.72;;;;;;;21.12;100.00;97473.53;5115252;27;20031;-76
2023/06/08 05:42:40;;;;;;;12.20;8.13;;;;;;;20.89;100.00;97478.63;5115054;27;20402;-76
2023/06/08 05:45:06;;;;;;;14.48;9.25;;;;;;;20.67;100.00;97478.34;5114966;27;20027;-75
2023/06/08 05:47:31;;;;;;;25.02;9.60;;;;;;;20.50;100.00;97489.06;5115169;27;20019;-76
2023/06/08 05:49:57;;;;;;;13.13;8.93;;;;;;;20.28;100.00;97499.56;5133571;27;20027;-75
2023/06/08 05:52:22;;;;;;;19.83;9.30;;;;;;;20.34;100.00;97498.94;5114968;27;20023;-75
2023/06/08 05:54:48;;;;;;;17.83;9.13;;;;;;;20.52;100.00;97507.94;5115403;27;20035;-76
2023/06/08 05:57:19;;;;;;;20.35;8.30;;;;;;;21.30;100.00;97495.22;5132101;27;20080;-74
2023/06/08 05:59:45;;;;;;;13.37;7.50;;;;;;;22.07;100.00;97479.50;5112984;27;20031;-74
2023/06/08 06:02:11;;;;;;;20.55;8.27;;;;;;;23.13;100.00;97464.78;5132014;27;20044;-77
2023/06/08 06:04:36;;;;;;;19.23;7.25;;;;;;;23.93;100.00;97462.75;5115114;27;20031;-76
2023/06/08 06:07:04;;;;;;;20.73;8.38;;;;;;;24.10;100.00;97453.41;5131889;27;20027;-76
2023/06/08 06:09:30;;;;;;;12.80;7.72;;;;;;;24.66;100.00;97449.38;5106638;27;20050;-76
2023/06/08 06:11:55;;;;;;;15.85;7.78;;;;;;;26.06;100.00;97438.28;5118248;27;20475;-76
2023/06/08 06:14:21;;;;;;;10.88;7.15;;;;;;;27.33;100.00;97429.91;5094253;28;20091;-75
2023/06/08 06:16:46;;;;;;;14.38;6.97;;;;;;;27.25;98.01;97419.09;5116979;27;20020;-76
2023/06/08 06:19:12;;;;;;;11.10;7.15;;;;;;;26.84;100.00;97408.03;5127906;27;20047;-75
2023/06/08 06:21:37;;;;;;;12.73;6.53;;;;;;;27.37;97.13;97414.72;5093144;28;20023;-75
2023/06/08 06:24:03;;;;;;;17.38;6.00;;;;;;;27.93;91.92;97417.31;5114044;27;20084;-74
2023/06/08 06:26:32;;;;;;;7.80;5.60;;;;;;;28.41;86.90;97394.13;5125179;27;20026;-75
2023/06/08 06:28:57;;;;;;;9.35;5.82;;;;;;;29.02;81.40;97385.66;5099596;28;20032;-75
2023/06/08 06:31:26;;;;;;;9.32;6.18;;;;;;;28.47;85.85;97398.78;5121524;27;20026;-76
2023/06/08 06:33:51;;;;;;;10.85;6.10;;;;;;;28.57;86.41;97386.50;5122842;27;20015;-74
2023/06/08 06:36:17;;;;;;;6.90;5.43;;;;;;;29.30;78.59;97383.50;5108239;27;20026;-74
2023/06/08 06:38:43;;;;;;;10.30;5.55;;;;;;;29.53;79.04;97377.47;5113806;27;20478;-75
2023/06/08 06:41:08;;;;;;;12.05;6.10;;;;;;;30.73;73.05;97388.44;5129908;27;20066;-75
2023/06/08 06:43:37;;;;;;;9.45;6.43;;;;;;;29.55;76.81;97370.69;5113817;27;20475;-75
2023/06/08 06:46:04;;;;;;;9.77;5.78;;;;;;;28.05;85.42;97365.31;5113879;27;20031;-75
2023/06/08 06:48:33;;;;;;;11.57;7.32;;;;;;;28.84;84.29;97369.78;5113893;27;20031;-75
2023/06/08 06:50:58;;;;;;;12.30;5.07;;;;;;;29.15;81.66;97377.34;5122477;27;20436;-75
2023/06/08 06:53:24;;;;;;;12.15;5.15;;;;;;;28.24;80.00;97348.81;5131026;27;20084;-75
2023/06/08 06:55:49;;;;;;;8.80;4.85;;;;;;;28.48;82.92;97372.13;5113894;27;20019;-74
2023/06/08 06:58:15;;;;;;;11.07;5.40;;;;;;;29.09;78.64;97363.59;5113893;27;20031;-75
2023/06/08 07:00:40;;;;;;;8.98;4.82;;;;;;;28.53;79.59;97359.41;5130972;27;20022;-76
2023/06/08 07:03:07;;;;;;;8.25;4.97;;;;;;;29.12;78.65;97358.50;5131088;27;20030;-75
2023/06/08 07:05:33;;;;;;;14.60;5.80;;;;;;;29.24;81.10;97370.59;5105231;28;20031;-74
2023/06/08 07:07:59;;;;;;;8.75;4.70;;;;;;;29.90;74.84;97362.06;5119039;27;20022;-75
2023/06/08 07:10:25;;;;;;;7.47;4.57;;;;;;;29.70;68.91;97339.22;5110404;28;20403;-76
2023/06/08 07:12:50;;;;;;;7.95;4.60;;;;;;;29.99;71.52;97353.28;5093373;28;20027;-76
2023/06/08 07:15:17;;;;;;;9.00;4.72;;;;;;;31.10;65.82;97354.28;5127267;27;20099;-75
2023/06/08 07:17:44;;;;;;;9.30;5.10;;;;;;;31.16;62.38;97333.19;5113409;27;20406;-74
2023/06/08 07:20:10;;;;;;;7.80;4.35;;;;;;;30.46;67.20;97340.00;5113383;27;20023;-75
2023/06/08 07:22:35;;;;;;;8.25;5.05;;;;;;;31.17;65.15;97344.00;5112262;28;20474;-74
2023/06/08 07:25:02;;;;;;;12.55;5.25;;;;;;;30.79;63.73;97318.47;5096407;27;20034;-75
2023/06/08 07:27:27;;;;;;;7.55;4.30;;;;;;;31.13;65.10;97341.97;5103251;28;20023;-75
2023/06/08 07:29:55;;;;;;;11.38;4.47;;;;;;;30.60;68.10;97339.69;5092953;28;20016;-74
2023/06/08 07:32:20;;;;;;;7.53;4.50;;;;;;;31.98;61.39;97356.63;5110727;28;20020;-75
2023/06/08 07:34:47;;;;;;;7.85;4.32;;;;;;;32.35;56.72;97333.31;5127613;27;20027;-75
2023/06/08 07:37:13;;;;;;;6.07;4.13;;;;;;;31.85;57.95;97331.91;5113453;28;20535;-75
2023/06/08 07:39:38;;;;;;;8.98;4.53;;;;;;;32.22;55.75;97326.06;5130282;27;20035;-75
2023/06/08 07:42:05;;;;;;;12.75;4.25;;;;;;;33.45;52.08;97333.47;5113265;28;20397;-76
2023/06/08 07:44:31;;;;;;;7.50;4.38;;;;;;;33.17;51.42;97321.22;5103631;28;20444;-76
2023/06/08 07:46:56;;;;;;;13.73;4.25;;;;;;;33.00;51.81;97302.78;5107259;28;20039;-75
2023/06/08 07:49:23;;;;;;;6.20;4.25;;;;;;;32.86;53.65;97320.72;5126623;28;20493;-75
2023/06/08 07:51:49;;;;;;;8.73;3.90;;;;;;;33.05;53.34;97322.28;5130390;27;20497;-75
2023/06/08 07:54:19;;;;;;;7.18;4.40;;;;;;;31.03;58.67;97297.41;5113247;28;20033;-75
2023/06/08 07:56:46;;;;;;;5.50;4.20;;;;;;;30.16;66.90;97312.19;5119000;28;20022;-75
2023/06/08 07:59:11;;;;;;;7.57;4.68;;;;;;;30.01;69.22;97315.28;5107868;28;20019;-75
2023/06/08 08:01:37;;;;;;;11.23;5.00;;;;;;;30.22;69.52;97327.84;5113102;28;20019;-76
2023/06/08 08:04:03;;;;;;;9.90;5.35;;;;;;;30.25;69.17;97321.88;5113193;28;20023;-75
2023/06/08 08:06:28;;;;;;;11.75;4.35;;;;;;;31.27;64.52;97332.41;5130189;27;20034;-76
2023/06/08 08:08:54;;;;;;;8.40;4.05;;;;;;;31.42;61.05;97330.09;5130411;27;20505;-75
2023/06/08 08:11:20;;;;;;;8.63;4.28;;;;;;;31.62;58.65;97321.59;5112972;28;20031;-75
2023/06/08 08:13:45;;;;;;;6.57;3.78;;;;;;;31.95;57.93;97329.44;5104737;28;20442;-75
2023/06/08 08:16:11;;;;;;;9.05;3.80;;;;;;;32.31;56.81;97340.38;5097951;28;20100;-76
2023/06/08 08:18:40;;;;;;;12.52;3.92;;;;;;;32.71;54.15;97324.81;5096080;28;20055;-76
2023/06/08 08:21:05;;;;;;;11.98;4.35;;;;;;;32.73;54.00;97319.88;5129850;27;20475;-76
2023/06/08 08:23:31;;;;;;;6.70;4.85;;;;;;;32.29;57.00;97322.34;5112752;28;20050;-77
2023/06/08 08:25:56;;;;;;;11.73;4.65;;;;;;;32.18;58.67;97326.75;5103812;28;20169;-77
2023/06/08 08:28:22;;;;;;;9.10;4.18;;;;;;;32.36;56.01;97323.94;5108074;28;20049;-75
2023/06/08 08:30:47;;;;;;;9.88;4.07;;;;;;;32.11;57.58;97315.81;5129930;27;20031;-76
2023/06/08 08:33:16;;;;;;;12.02;3.92;;;;;;;32.80;54.38;97319.75;5112659;27;20391;-76
2023/06/08 08:35:42;;;;;;;6.10;4.38;;;;;;;31.65;58.74;97310.06;5116137;27;20054;-74
2023/06/08 08:38:07;;;;;;;8.02;4.00;;;;;;;31.57;57.80;97307.59;5111725;28;20117;-75
2023/06/08 08:40:33;;;;;;;5.90;3.60;;;;;;;31.73;58.93;97319.94;5104362;28;20034;-75
2023/06/08 08:43:22;;;;;;;8.95;3.60;;;;;;;33.01;52.65;97312.78;5113953;28;20019;-77
2023/06/08 08:45:50;;;;;;;9.55;3.97;;;;;;;31.67;56.52;97299.59;5096227;28;20398;-76
2023/06/08 08:48:19;;;;;;;7.25;3.50;;;;;;;31.20;59.04;97295.72;5115500;27;20019;-75
2023/06/08 08:50:49;;;;;;;10.13;4.43;;;;;;;30.98;61.43;97300.84;5099173;27;20046;-74
2023/06/08 08:53:16;;;;;;;6.68;3.97;;;;;;;30.38;64.55;97293.34;5133168;27;20030;-74
2023/06/08 08:55:43;;;;;;;8.55;4.10;;;;;;;31.46;59.51;97317.50;5116654;27;20042;-75
2023/06/08 08:58:10;;;;;;;10.27;4.47;;;;;;;32.29;52.93;97297.41;5132788;27;20057;-75
2023/06/08 09:00:36;;;;;;;6.30;4.28;;;;;;;32.13;53.43;97298.94;5133393;27;20465;-75
2023/06/08 09:03:02;;;;;;;11.35;3.88;;;;;;;31.97;57.83;97314.25;5133171;27;20042;-76
2023/06/08 09:05:27;;;;;;;8.18;4.03;;;;;;;32.30;56.27;97316.56;5102247;28;20027;-76
2023/06/08 09:07:56;;;;;;;5.28;3.90;;;;;;;31.97;56.32;97294.03;5114094;28;20019;-75
2023/06/08 09:10:26;;;;;;;11.05;4.45;;;;;;;32.93;53.71;97304.81;5129661;27;20024;-76
2023/06/08 09:12:54;;;;;;;10.52;4.00;;;;;;;33.69;50.67;97321.22;5132426;27;20020;-76
2023/06/08 09:15:31;;;;;;;6.70;3.50;;;;;;;35.09;47.66;97333.25;5115906;27;20110;-75
2023/06/08 09:18:02;;;;;;;3.53;3.20;;;;;;;35.19;47.26;97322.25;5116968;27;20400;-76
2023/06/08 09:20:31;;;;;;;7.25;3.65;;;;;;;34.21;47.71;97292.28;5112621;28;20088;-76
2023/06/08 09:22:57;;;;;;;6.18;3.80;;;;;;;33.36;50.96;97283.06;5112167;28;20077;-75
2023/06/08 09:25:38;;;;;;;10.57;3.88;;;;;;;32.62;54.17;97287.47;5132141;27;20023;-76
2023/06/08 09:28:25;;;;;;;7.53;4.50;;;;;;;31.91;57.94;97289.44;5133033;27;20558;-75
2023/06/08 09:30:51;;;;;;;12.32;4.10;;;;;;;30.95;63.12;97287.50;5115260;27;20272;-75
2023/06/08 09:33:19;;;;;;;8.73;4.43;;;;;;;31.00;64.10;97297.88;5115076;27;20045;-76
2023/06/08 09:35:44;;;;;;;12.57;3.88;;;;;;;32.74;55.59;97306.88;5132358;27;20058;-75
2023/06/08 09:38:21;;;;;;;8.20;4.35;;;;;;;33.62;51.24;97309.44;5132479;27;20058;-76
2023/06/08 09:40:50;;;;;;;23.05;8.07;;;;;;;33.38;52.03;97300.31;5115753;27;20023;-76
2023/06/08 09:43:32;;;;;;;12.05;4.40;;;;;;;33.20;51.77;97286.59;5118488;27;20027;-76
2023/06/08 09:45:58;;;;;;;6.15;3.60;;;;;;;32.76;52.57;97276.16;5097678;28;21923;-76
2023/06/08 09:48:23;;;;;;;7.95;3.40;;;;;;;32.14;54.51;97275.72;5105302;27;20029;-76
2023/06/08 09:50:49;;;;;;;9.13;3.20;;;;;;;31.91;56.97;97273.69;5114990;27;20106;-76
2023/06/08 09:53:15;;;;;;;6.50;3.40;;;;;;;31.22;58.25;97271.47;5115036;27;20098;-76
2023/06/08 09:55:41;;;;;;;7.13;4.07;;;;;;;30.38;63.50;97268.47;5098693;27;20027;-76
2023/06/08 09:58:08;;;;;;;8.10;4.53;;;;;;;30.26;67.88;97284.94;5121258;27;20035;-76
2023/06/08 10:00:36;;;;;;;9.48;4.32;;;;;;;30.17;69.99;97286.28;5131630;27;20083;-76
2023/06/08 10:03:16;;;;;;;8.85;3.60;;;;;;;29.62;71.95;97270.53;5115031;27;20023;-75
2023/06/08 10:05:44;;;;;;;9.85;3.65;;;;;;;28.87;74.57;97270.22;5132032;27;20053;-75
2023/06/08 10:08:12;;;;;;;7.97;3.38;;;;;;;28.83;76.84;97281.84;5101172;28;20493;-76
2023/06/08 10:10:38;;;;;;;8.70;4.00;;;;;;;29.13;74.37;97284.97;5131945;27;20474;-76
2023/06/08 10:13:04;;;;;;;11.27;4.40;;;;;;;31.14;65.68;97299.41;5097557;27;20027;-75
2023/06/08 10:15:32;;;;;;;7.15;3.90;;;;;;;32.31;56.82;97295.22;5119536;27;20031;-75
2023/06/08 10:17:58;;;;;;;7.72;3.67;;;;;;;32.32;53.12;97266.47;5111246;27;20653;-75
2023/06/08 10:20:25;;;;;;;10.18;4.13;;;;;;;32.82;53.26;97272.41;5131545;27;20398;-75
2023/06/08 10:22:50;;;;;;;7.57;3.33;;;;;;;33.19;52.81;97291.31;5114419;27;20028;-76
2023/06/08 10:25:18;;;;;;;11.18;3.92;;;;;;;35.28;46.39;97289.28;5111416;27;20028;-76
2023/06/08 10:27:51;;;;;;;6.45;3.38;;;;;;;36.01;42.84;97279.59;5125910;27;20478;-77
2023/06/08 10:30:28;;;;;;;6.07;3.60;;;;;;;35.57;43.34;97268.53;5106028;27;20122;-76
2023/06/08 10:32:55;;;;;;;9.30;3.42;;;;;;;33.61;46.95;97225.34;5131452;27;20023;-76
2023/06/08 10:35:20;;;;;;;6.88;3.78;;;;;;;33.11;48.80;97218.75;5131204;27;20027;-75
2023/06/08 10:37:47;;;;;;;13.88;5.35;;;;;;;32.12;52.66;97211.41;5131360;27;20106;-75
2023/06/08 10:40:13;;;;;;;14.07;5.57;;;;;;;32.16;53.05;97216.25;5124183;27;20087;-76
2023/06/08 10:42:55;;;;;;;11.63;5.43;;;;;;;32.75;49.12;97219.88;5093700;28;20027;-76
2023/06/08 10:45:33;;;;;;;;;;;;;;;34.01;45.00;97236.34;5128560;27;20106;-77
2023/06/08 10:48:20;;;;;;;10.07;3.97;;;;;;;35.10;43.75;97245.09;5114381;27;19915;-76
2023/06/08 10:50:48;;;;;;;6.50;3.90;;;;;;;36.69;39.71;97256.56;5102611;28;20526;-75
2023/06/08 10:53:18;;;;;;;11.57;4.20;;;;;;;35.26;42.08;97216.34;5126516;27;20612;-75
2023/06/08 10:55:48;;;;;;;6.38;3.47;;;;;;;35.04;42.74;97213.53;5110754;27;20027;-76
2023/06/08 10:58:20;;;;;;;10.23;3.78;;;;;;;34.09;44.53;97187.88;5117505;27;20390;-75
2023/06/08 11:00:50;;;;;;;7.20;4.20;;;;;;;33.17;46.98;97187.25;5093824;28;20151;-75
2023/06/08 11:03:18;;;;;;;9.45;4.70;;;;;;;32.74;52.55;97201.56;5109239;27;20031;-75
2023/06/08 11:05:48;;;;;;;14.75;3.83;;;;;;;32.21;51.96;97194.22;5130934;27;20106;-76
2023/06/08 11:08:13;;;;;;;7.25;3.53;;;;;;;31.74;51.97;97186.06;5114428;27;20074;-80
2023/06/08 11:10:39;;;;;;;4.38;3.40;;;;;;;30.86;55.73;97185.75;5114080;27;20478;-80
2023/06/08 11:13:10;;;;;;;6.22;3.22;;;;;;;30.66;55.05;97193.44;5108980;28;20025;-80
2023/06/08 11:15:41;;;;;;;4.22;3.13;;;;;;;32.05;52.38;97199.63;5103451;27;20027;-78
2023/06/08 11:18:08;;;;;;;9.27;4.25;;;;;;;33.95;47.08;97214.28;5131267;27;20047;-80
2023/06/08 11:20:37;;;;;;;7.28;3.85;;;;;;;32.86;48.15;97182.97;5099087;28;20123;-80
2023/06/08 11:23:06;;;;;;;8.52;3.65;;;;;;;31.39;53.92;97183.16;5113911;27;20092;-80
2023/06/08 11:25:31;;;;;;;7.57;3.47;;;;;;;31.17;55.70;97178.16;5129800;27;21062;-79